createdAt,value
2024-01-10T00:00:33.328Z,75.80
2024-01-10T00:03:35.136Z,75.80
2024-01-10T00:06:36.921Z,75.90
2024-01-10T00:09:38.650Z,75.90
2024-01-10T00:12:40.382Z,75.90
2024-01-10T00:15:42.096Z,75.80
2024-01-10T00:18:43.931Z,75.70
2024-01-10T00:21:46.001Z,75.60
2024-01-10T00:24:47.729Z,75.70
2024-01-10T00:27:49.447Z,75.60
2024-01-10T00:30:51.348Z,75.60
2024-01-10T00:33:53.257Z,75.60
2024-01-10T00:36:55.054Z,75.70
2024-01-10T00:39:56.786Z,75.70
2024-01-10T00:42:58.767Z,75.60
2024-01-10T00:46:00.536Z,75.70
2024-01-10T00:49:02.276Z,75.70
2024-01-10T00:52:04.572Z,75.80
2024-01-10T00:55:06.612Z,75.70
2024-01-10T00:58:08.396Z,75.80
2024-01-10T01:01:10.256Z,75.90
2024-01-10T01:04:12.083Z,76.20
2024-01-10T01:07:13.809Z,76.40
2024-01-10T01:10:15.535Z,76.50
2024-01-10T01:13:17.374Z,76.80
2024-01-10T01:16:19.216Z,76.90
2024-01-10T01:19:20.998Z,77.00
2024-01-10T01:22:23.033Z,77.20
2024-01-10T01:25:24.808Z,77.30
2024-01-10T01:28:26.524Z,77.50
2024-01-10T01:31:28.254Z,77.70
2024-01-10T01:34:30.113Z,77.80
2024-01-10T01:37:31.822Z,77.80
2024-01-10T01:40:33.553Z,77.70
2024-01-10T01:43:36.404Z,77.90
2024-01-10T01:46:38.242Z,77.80
2024-01-10T01:49:40.214Z,77.90
2024-01-10T01:52:42.421Z,77.90
2024-01-10T01:55:44.788Z,77.90
2024-01-10T01:58:46.552Z,77.90
2024-01-10T02:01:48.594Z,77.90
2024-01-10T02:04:50.416Z,77.90
2024-01-10T02:07:52.229Z,78.00
2024-01-10T02:10:54.059Z,78.20
2024-01-10T02:13:55.942Z,78.50
2024-01-10T02:16:57.856Z,78.50
2024-01-10T02:20:13.285Z,78.50
2024-01-10T02:23:15.152Z,78.40
2024-01-10T02:26:17.003Z,78.40
2024-01-10T02:29:18.831Z,78.50
2024-01-10T02:32:20.704Z,78.60
2024-01-10T02:35:22.568Z,78.60
2024-01-10T02:38:25.061Z,78.70
2024-01-10T02:41:28.580Z,78.90
2024-01-10T02:44:30.295Z,79.00
2024-01-10T02:47:32.020Z,79.00
2024-01-10T02:50:33.830Z,79.10
2024-01-10T02:53:36.997Z,79.10
2024-01-10T02:56:38.715Z,79.00
2024-01-10T02:59:40.439Z,79.00
2024-01-10T03:02:42.486Z,79.20
2024-01-10T03:05:44.277Z,79.20
2024-01-10T03:08:46.026Z,79.10
2024-01-10T03:11:48.015Z,79.10
2024-01-10T03:14:49.797Z,79.10
2024-01-10T03:17:51.689Z,79.10
2024-01-10T03:20:53.954Z,79.20
2024-01-10T03:23:59.525Z,79.20
2024-01-10T03:27:01.269Z,79.20
2024-01-10T03:30:03.309Z,79.20
2024-01-10T03:33:05.753Z,79.40
2024-01-10T03:36:08.106Z,79.50
2024-01-10T03:39:10.269Z,79.50
2024-01-10T03:42:12.282Z,79.50
2024-01-10T03:45:20.743Z,79.50
2024-01-10T03:48:24.185Z,79.60
2024-01-10T03:51:26.135Z,79.60
2024-01-10T03:54:27.887Z,79.60
2024-01-10T03:57:29.713Z,79.60
2024-01-10T04:00:31.677Z,79.60
2024-01-10T04:03:34.081Z,79.60
2024-01-10T04:06:35.887Z,79.60
2024-01-10T04:09:37.699Z,79.70
2024-01-10T04:12:39.472Z,79.70
2024-01-10T04:15:41.243Z,79.70
2024-01-10T04:18:43.079Z,79.80
2024-01-10T04:21:45.049Z,79.90
2024-01-10T04:24:46.852Z,79.90
2024-01-10T04:27:51.218Z,79.90
2024-01-10T04:30:53.125Z,79.80
2024-01-10T04:33:55.380Z,79.80
2024-01-10T04:36:57.195Z,79.70
2024-01-10T04:39:58.912Z,79.80
2024-01-10T04:43:00.831Z,80.00
2024-01-10T04:46:02.576Z,80.00
2024-01-10T04:49:04.346Z,79.90
2024-01-10T04:52:06.626Z,79.90
2024-01-10T04:55:09.390Z,80.00
2024-01-10T04:58:11.306Z,80.00
2024-01-10T05:01:13.317Z,80.00
2024-01-10T05:04:15.088Z,80.10
2024-01-10T05:07:16.812Z,80.10
2024-01-10T05:10:18.577Z,80.30
2024-01-10T05:13:20.351Z,80.30
2024-01-10T05:16:22.821Z,80.30
2024-01-10T05:19:24.650Z,80.50
2024-01-10T05:22:26.610Z,80.40
2024-01-10T05:25:28.473Z,80.40
2024-01-10T05:28:30.280Z,80.40
2024-01-10T05:31:32.184Z,80.50
2024-01-10T05:34:33.964Z,80.70
2024-01-10T05:37:35.955Z,80.70
2024-01-10T05:40:37.718Z,80.80
2024-01-10T05:43:39.680Z,80.80
2024-01-10T05:46:42.221Z,80.70
2024-01-10T05:49:43.987Z,80.80
2024-01-10T05:52:46.825Z,80.90
2024-01-10T05:55:49.938Z,80.80
2024-01-10T05:58:51.749Z,80.80
2024-01-10T06:01:53.735Z,80.70
2024-01-10T06:04:55.521Z,80.70
2024-01-10T06:07:57.316Z,80.80
2024-01-10T06:10:59.163Z,80.70
2024-01-10T06:14:00.971Z,80.70
2024-01-10T06:17:04.945Z,80.70
2024-01-10T06:20:08.196Z,80.80
2024-01-10T06:23:10.174Z,80.80
2024-01-10T06:26:12.112Z,80.90
2024-01-10T06:29:13.982Z,80.90
2024-01-10T06:32:16.292Z,80.90
2024-01-10T06:35:18.152Z,81.00
2024-01-10T06:38:21.989Z,81.00
2024-01-10T06:41:27.780Z,81.00
2024-01-10T06:44:29.926Z,81.00
2024-01-10T06:47:31.769Z,80.90
2024-01-10T06:50:33.570Z,80.80
2024-01-10T06:53:35.452Z,80.80
2024-01-10T06:56:37.262Z,80.80
2024-01-10T06:59:39.049Z,80.70
2024-01-10T07:02:42.069Z,80.70
2024-01-10T07:05:45.699Z,80.70
2024-01-10T07:08:48.758Z,80.70
2024-01-10T07:11:50.992Z,80.70
2024-01-10T07:14:52.811Z,80.70
2024-01-10T07:17:54.677Z,80.50
2024-01-10T07:20:56.446Z,80.50
2024-01-10T07:23:58.424Z,80.50
2024-01-10T07:27:00.358Z,80.40
2024-01-10T07:30:12.908Z,80.40
2024-01-10T07:33:15.036Z,80.40
2024-01-10T07:36:16.910Z,80.40
2024-01-10T07:39:21.474Z,80.40
2024-01-10T07:42:23.409Z,80.30
2024-01-10T07:45:25.126Z,80.40
2024-01-10T07:48:27.119Z,80.40
2024-01-10T07:51:29.017Z,80.40
2024-01-10T07:54:33.315Z,80.40
2024-01-10T07:57:35.209Z,80.40
2024-01-10T08:00:37.003Z,80.50
2024-01-10T08:03:39.083Z,80.50
2024-01-10T08:06:40.906Z,80.50
2024-01-10T08:09:43.401Z,80.60
2024-01-10T08:12:45.394Z,80.70
2024-01-10T08:15:47.406Z,80.60
2024-01-10T08:18:49.814Z,80.60
2024-01-10T08:21:51.731Z,80.60
2024-01-10T08:24:53.524Z,80.50
2024-01-10T08:27:56.608Z,80.50
2024-01-10T08:31:04.330Z,80.50
2024-01-10T08:34:07.216Z,80.40
2024-01-10T08:37:08.989Z,80.30
2024-01-10T08:40:13.196Z,80.20
2024-01-10T08:43:15.292Z,80.10
2024-01-10T08:46:17.227Z,80.00
2024-01-10T08:49:19.657Z,80.00
2024-01-10T08:52:21.760Z,80.00
2024-01-10T08:55:23.683Z,79.90
2024-01-10T08:58:25.412Z,79.70
2024-01-10T09:01:27.528Z,79.60
2024-01-10T09:04:29.958Z,79.50
2024-01-10T09:07:31.752Z,79.30
2024-01-10T09:10:33.518Z,79.20
2024-01-10T09:13:35.750Z,79.00
2024-01-10T09:16:37.552Z,78.80
2024-01-10T09:19:39.378Z,78.50
2024-01-10T09:22:41.488Z,78.20
2024-01-10T09:25:43.394Z,78.00
2024-01-10T09:28:45.140Z,77.90
2024-01-10T09:31:47.091Z,77.60
2024-01-10T09:34:48.955Z,77.30
2024-01-10T09:37:50.870Z,77.20
2024-01-10T09:40:53.916Z,76.90
2024-01-10T09:43:57.129Z,76.90
2024-01-10T09:46:58.901Z,76.80
2024-01-10T09:50:03.374Z,76.70
2024-01-10T09:53:08.856Z,76.60
2024-01-10T09:56:11.538Z,76.40
2024-01-10T09:59:13.962Z,76.20
2024-01-10T10:02:17.734Z,76.00
2024-01-10T10:05:19.640Z,75.80
2024-01-10T10:08:24.006Z,75.60
2024-01-10T10:11:26.403Z,75.40
2024-01-10T10:14:29.901Z,75.20
2024-01-10T10:17:31.822Z,75.00
2024-01-10T10:20:38.574Z,74.90
2024-01-10T10:23:44.337Z,74.80
2024-01-10T10:26:46.238Z,74.50
2024-01-10T10:29:48.761Z,74.20
2024-01-10T10:32:51.434Z,74.20
2024-01-10T10:35:53.611Z,73.90
2024-01-10T10:38:55.584Z,73.50
2024-01-10T10:41:58.914Z,73.20
2024-01-10T10:45:06.689Z,72.90
2024-01-10T10:48:08.479Z,72.90
2024-01-10T10:51:18.995Z,72.90
2024-01-10T10:54:21.090Z,72.80
2024-01-10T10:57:22.890Z,72.80
2024-01-10T11:00:30.847Z,72.70
2024-01-10T11:03:32.955Z,72.60
2024-01-10T11:06:35.413Z,72.50
2024-01-10T11:09:37.226Z,72.50
2024-01-10T11:12:57.696Z,72.30
2024-01-10T11:16:11.743Z,72.10
2024-01-10T11:19:19.756Z,71.90
2024-01-10T11:22:33.241Z,71.80
2024-01-10T11:25:37.880Z,71.80
2024-01-10T11:28:40.362Z,71.20
2024-01-10T11:31:42.410Z,71.10
2024-01-10T11:35:12.791Z,70.70
2024-01-10T11:38:14.615Z,70.30
2024-01-10T11:41:43.895Z,70.00
2024-01-10T11:44:52.574Z,70.00
2024-01-10T11:47:54.568Z,69.80
2024-01-10T11:50:57.382Z,69.60
2024-01-10T11:53:59.792Z,69.30
2024-01-10T11:57:02.289Z,69.20
2024-01-10T12:00:06.510Z,69.00
2024-01-10T12:03:08.979Z,68.50
2024-01-10T12:06:10.961Z,68.20
2024-01-10T12:09:14.333Z,68.00
2024-01-10T12:12:16.340Z,67.60
2024-01-10T12:15:18.121Z,67.50
2024-01-10T12:18:22.097Z,67.30
2024-01-10T12:21:24.010Z,67.20
2024-01-10T12:24:25.745Z,67.10
2024-01-10T12:27:29.029Z,66.90
2024-01-10T12:30:32.200Z,67.00
2024-01-10T12:33:34.158Z,66.90
2024-01-10T12:36:35.972Z,66.80
2024-01-10T12:39:38.976Z,66.40
2024-01-10T12:42:40.850Z,66.20
2024-01-10T12:45:44.496Z,66.10
2024-01-10T12:48:46.362Z,65.90
2024-01-10T12:51:48.392Z,65.40
2024-01-10T12:54:50.259Z,65.10
2024-01-10T12:57:51.987Z,65.10
2024-01-10T13:00:53.926Z,64.70
2024-01-10T13:03:56.367Z,64.50
2024-01-10T13:06:58.185Z,64.30
2024-01-10T13:09:59.998Z,64.10
2024-01-10T13:13:01.721Z,63.80
2024-01-10T13:16:03.771Z,63.40
2024-01-10T13:19:05.692Z,63.20
2024-01-10T13:22:09.275Z,62.50
2024-01-10T13:25:11.194Z,62.30
2024-01-10T13:28:13.801Z,61.60
2024-01-10T13:31:16.695Z,60.90
2024-01-10T13:34:18.782Z,60.70
2024-01-10T13:37:20.565Z,60.80
2024-01-10T13:40:25.377Z,60.40
2024-01-10T13:43:27.397Z,60.30
2024-01-10T13:46:29.138Z,59.70
2024-01-10T13:49:31.153Z,59.50
2024-01-10T13:52:36.917Z,59.50
2024-01-10T13:55:38.695Z,59.50
2024-01-10T13:58:40.558Z,59.40
2024-01-10T14:01:42.537Z,59.00
2024-01-10T14:04:44.249Z,58.70
2024-01-10T14:07:46.159Z,58.20
2024-01-10T14:10:48.809Z,58.20
2024-01-10T14:13:50.651Z,58.00
2024-01-10T14:16:52.509Z,57.80
2024-01-10T14:19:54.258Z,57.70
2024-01-10T14:22:56.243Z,57.80
2024-01-10T14:25:58.112Z,57.90
2024-01-10T14:29:00.775Z,57.90
2024-01-10T14:32:16.560Z,57.80
2024-01-10T14:35:20.340Z,57.70
2024-01-10T14:38:22.973Z,58.00
2024-01-10T14:41:25.072Z,58.20
2024-01-10T14:44:27.006Z,57.90
2024-01-10T14:47:30.158Z,58.00
2024-01-10T14:50:32.186Z,57.70
2024-01-10T14:53:36.262Z,57.50
2024-01-10T14:56:38.805Z,57.70
2024-01-10T14:59:46.258Z,57.90
2024-01-10T15:02:49.574Z,58.10
2024-01-10T15:05:52.912Z,57.90
2024-01-10T15:08:54.763Z,57.60
2024-01-10T15:11:57.244Z,57.70
2024-01-10T15:15:02.487Z,57.90
2024-01-10T15:18:05.211Z,58.10
2024-01-10T15:21:08.506Z,58.20
2024-01-10T15:24:10.353Z,58.00
2024-01-10T15:27:12.916Z,58.20
2024-01-10T15:30:16.934Z,58.20
2024-01-10T15:33:19.925Z,58.30
2024-01-10T15:36:21.691Z,58.10
2024-01-10T15:39:25.515Z,58.20
2024-01-10T15:42:29.433Z,58.40
2024-01-10T15:45:32.709Z,58.60
2024-01-10T15:48:35.031Z,58.80
2024-01-10T15:51:37.098Z,58.70
2024-01-10T15:54:39.220Z,58.90
2024-01-10T15:57:41.150Z,59.00
2024-01-10T16:00:42.977Z,59.00
2024-01-10T16:03:45.138Z,59.20
2024-01-10T16:06:46.899Z,59.40
2024-01-10T16:09:48.634Z,59.70
2024-01-10T16:12:50.689Z,60.10
2024-01-10T16:15:54.972Z,60.40
2024-01-10T16:18:56.798Z,60.50
2024-01-10T16:21:58.704Z,60.60
2024-01-10T16:25:01.057Z,60.60
2024-01-10T16:28:02.973Z,60.80
2024-01-10T16:31:05.011Z,60.80
2024-01-10T16:34:06.770Z,60.90
2024-01-10T16:37:09.113Z,61.00
2024-01-10T16:40:11.533Z,61.00
2024-01-10T16:43:13.601Z,61.10
2024-01-10T16:46:15.485Z,61.20
2024-01-10T16:49:17.318Z,61.20
2024-01-10T16:52:19.451Z,61.10
2024-01-10T16:55:21.297Z,61.20
2024-01-10T16:58:23.576Z,61.30
2024-01-10T17:01:25.366Z,61.40
2024-01-10T17:04:27.154Z,61.40
2024-01-10T17:07:28.882Z,61.60
2024-01-10T17:10:30.758Z,61.70
2024-01-10T17:13:32.542Z,61.70
2024-01-10T17:16:36.395Z,61.90
2024-01-10T17:19:38.486Z,61.90
2024-01-10T17:22:40.573Z,62.10
2024-01-10T17:25:42.295Z,62.10
2024-01-10T17:28:44.152Z,62.20
2024-01-10T17:31:46.244Z,62.30
2024-01-10T17:34:48.051Z,62.50
2024-01-10T17:37:49.914Z,62.60
2024-01-10T17:40:53.649Z,62.70
2024-01-10T17:43:55.427Z,62.70
2024-01-10T17:46:57.175Z,62.90
2024-01-10T17:49:58.965Z,62.90
2024-01-10T17:53:02.515Z,63.00
2024-01-10T17:56:04.547Z,63.30
2024-01-10T17:59:06.388Z,63.40
2024-01-10T18:02:08.481Z,63.40
2024-01-10T18:05:10.742Z,63.50
2024-01-10T18:08:12.611Z,63.60
2024-01-10T18:11:14.707Z,63.70
2024-01-10T18:14:16.525Z,64.00
2024-01-10T18:17:18.520Z,64.00
2024-01-10T18:20:20.313Z,64.10
2024-01-10T18:23:22.157Z,64.10
2024-01-10T18:26:24.715Z,64.20
2024-01-10T18:29:26.634Z,64.30
2024-01-10T18:32:28.903Z,64.30
2024-01-10T18:35:30.968Z,64.50
2024-01-10T18:38:32.869Z,64.50
2024-01-10T18:41:35.000Z,64.50
2024-01-10T18:44:36.810Z,64.40
2024-01-10T18:47:38.696Z,64.40
2024-01-10T18:50:41.950Z,64.30
2024-01-10T18:53:43.882Z,64.30
2024-01-10T18:56:45.646Z,64.20
2024-01-10T18:59:47.369Z,64.30
2024-01-10T19:02:49.240Z,64.40
2024-01-10T19:05:51.161Z,64.50
2024-01-10T19:08:54.245Z,64.50
2024-01-10T19:11:56.755Z,64.50
2024-01-10T19:14:58.490Z,64.50
2024-01-10T19:18:00.654Z,64.60
2024-01-10T19:21:05.539Z,64.70
2024-01-10T19:24:07.499Z,64.70
2024-01-10T19:27:09.282Z,64.80
2024-01-10T19:30:17.124Z,65.00
2024-01-10T19:33:19.147Z,65.10
2024-01-10T19:36:22.739Z,65.20
2024-01-10T19:39:25.757Z,65.40
2024-01-10T19:42:30.556Z,65.40
2024-01-10T19:45:33.080Z,65.50
2024-01-10T19:48:36.061Z,65.50
2024-01-10T19:51:38.520Z,65.60
2024-01-10T19:54:40.250Z,65.60
2024-01-10T19:57:41.951Z,65.70
2024-01-10T20:00:43.902Z,65.80
2024-01-10T20:03:45.940Z,65.90
2024-01-10T20:06:47.701Z,66.10
2024-01-10T20:09:51.234Z,66.30
2024-01-10T20:12:52.979Z,66.40
2024-01-10T20:15:54.767Z,66.50
2024-01-10T20:18:56.626Z,66.60
2024-01-10T20:21:58.840Z,66.70
2024-01-10T20:25:00.594Z,66.80
2024-01-10T20:28:02.446Z,66.90
2024-01-10T20:31:06.789Z,66.90
2024-01-10T20:34:08.775Z,67.00
2024-01-10T20:37:11.039Z,67.10
2024-01-10T20:40:12.986Z,67.10
2024-01-10T20:43:14.720Z,67.30
2024-01-10T20:46:17.494Z,67.50
2024-01-10T20:49:19.295Z,67.60
2024-01-10T20:52:21.998Z,67.90
2024-01-10T20:55:23.747Z,68.10
2024-01-10T20:58:25.506Z,68.40
2024-01-10T21:01:27.516Z,68.50
2024-01-10T21:04:29.284Z,68.80
2024-01-10T21:07:31.123Z,68.90
2024-01-10T21:10:32.907Z,69.00
2024-01-10T21:13:34.731Z,69.20
2024-01-10T21:16:36.469Z,69.30
2024-01-10T21:19:38.188Z,69.50
2024-01-10T21:22:40.877Z,69.60
2024-01-10T21:25:42.785Z,69.70
2024-01-10T21:28:44.684Z,69.80
2024-01-10T21:31:46.785Z,70.00
2024-01-10T21:34:49.094Z,70.10
2024-01-10T21:37:50.988Z,70.20
2024-01-10T21:40:54.359Z,70.40
2024-01-10T21:43:56.350Z,70.40
2024-01-10T21:46:58.156Z,70.50
2024-01-10T21:50:00.672Z,70.50
2024-01-10T21:53:02.985Z,70.60
2024-01-10T21:56:10.727Z,70.70
2024-01-10T21:59:12.626Z,71.00
2024-01-10T22:02:14.662Z,71.20
2024-01-10T22:05:16.545Z,71.40
2024-01-10T22:08:18.606Z,71.40
2024-01-10T22:11:20.779Z,71.30
2024-01-10T22:14:22.738Z,71.30
2024-01-10T22:17:24.540Z,71.30
2024-01-10T22:20:26.485Z,71.20
2024-01-10T22:23:28.440Z,71.20
2024-01-10T22:26:30.251Z,71.10
2024-01-10T22:29:32.221Z,71.10
2024-01-10T22:32:34.487Z,71.10
2024-01-10T22:35:37.405Z,71.10
2024-01-10T22:38:39.241Z,71.20
2024-01-10T22:41:41.056Z,71.20
2024-01-10T22:44:42.778Z,71.10
2024-01-10T22:47:44.621Z,71.20
2024-01-10T22:50:47.621Z,71.20
2024-01-10T22:53:49.878Z,71.20
2024-01-10T22:56:51.661Z,71.20
2024-01-10T22:59:53.363Z,71.40
2024-01-10T23:02:55.482Z,71.50
2024-01-10T23:05:57.407Z,71.60
2024-01-10T23:08:59.306Z,71.60
2024-01-10T23:12:01.226Z,71.60
2024-01-10T23:15:03.373Z,71.50
2024-01-10T23:18:05.505Z,71.40
2024-01-10T23:21:10.725Z,71.50
2024-01-10T23:24:12.527Z,71.80
2024-01-10T23:27:14.301Z,71.90
2024-01-10T23:30:16.272Z,72.10
2024-01-10T23:33:18.388Z,72.10
2024-01-10T23:36:20.177Z,72.20
2024-01-10T23:39:21.905Z,72.30
2024-01-10T23:42:23.923Z,72.50
2024-01-10T23:45:25.669Z,72.50
2024-01-10T23:48:27.593Z,72.70
2024-01-10T23:51:29.702Z,72.80
2024-01-10T23:54:31.425Z,72.90
2024-01-10T23:57:33.222Z,72.90
